createdAt,value
2022-11-19T00:00:01.197Z,10.65
2022-11-19T00:01:04.727Z,11.25
2022-11-19T00:02:08.452Z,13.13
2022-11-19T00:03:11.197Z,9.98
2022-11-19T00:04:14.858Z,9.80
2022-11-19T00:05:17.674Z,10.43
2022-11-19T00:06:22.497Z,11.73
2022-11-19T00:07:26.250Z,11.40
2022-11-19T00:08:29.559Z,11.55
2022-11-19T00:09:34.143Z,12.27
2022-11-19T00:10:36.974Z,9.18
2022-11-19T00:11:58.062Z,10.05
2022-11-19T00:13:03.386Z,11.05
2022-11-19T00:14:06.218Z,10.20
2022-11-19T00:15:10.187Z,8.18
2022-11-19T00:16:13.924Z,8.60
2022-11-19T00:17:17.627Z,8.88
2022-11-19T00:18:20.415Z,9.10
2022-11-19T00:19:24.166Z,9.35
2022-11-19T00:20:28.435Z,9.57
2022-11-19T00:21:31.074Z,9.02
2022-11-19T00:22:34.907Z,10.00
2022-11-19T00:23:37.959Z,10.48
2022-11-19T00:24:41.649Z,9.23
2022-11-19T00:25:44.269Z,9.60
2022-11-19T00:26:48.036Z,9.30
2022-11-19T00:27:51.079Z,10.48
2022-11-19T00:28:56.942Z,10.98
2022-11-19T00:29:59.686Z,9.88
2022-11-19T00:31:05.365Z,10.00
2022-11-19T00:32:07.991Z,10.60
2022-11-19T00:33:11.706Z,10.35
2022-11-19T00:34:14.425Z,11.10
2022-11-19T00:35:18.205Z,9.82
2022-11-19T00:36:21.575Z,10.05
2022-11-19T00:37:25.975Z,9.68
2022-11-19T00:38:29.708Z,9.57
2022-11-19T00:39:33.615Z,9.45
2022-11-19T00:40:36.269Z,10.35
2022-11-19T00:41:39.951Z,9.57
2022-11-19T00:43:02.719Z,9.77
2022-11-19T00:44:07.927Z,10.65
2022-11-19T00:45:11.005Z,11.07
2022-11-19T00:46:15.338Z,9.95
2022-11-19T00:47:19.028Z,11.27
2022-11-19T00:48:21.678Z,10.73
2022-11-19T00:49:25.454Z,11.05
2022-11-19T00:50:28.166Z,9.98
2022-11-19T00:51:32.309Z,10.27
2022-11-19T00:52:34.918Z,9.25
2022-11-19T00:53:38.704Z,9.82
2022-11-19T00:54:41.335Z,11.13
2022-11-19T00:55:45.014Z,10.70
2022-11-19T00:56:48.719Z,9.63
2022-11-19T00:57:51.388Z,9.15
2022-11-19T00:58:55.389Z,9.50
2022-11-19T00:59:59.578Z,8.90
2022-11-19T01:01:03.385Z,10.00
2022-11-19T01:02:06.088Z,9.35
2022-11-19T01:03:09.757Z,9.65
2022-11-19T01:04:13.468Z,9.52
2022-11-19T01:05:16.278Z,9.15
2022-11-19T01:06:21.842Z,9.95
2022-11-19T01:07:24.588Z,10.20
2022-11-19T01:08:28.628Z,9.77
2022-11-19T01:09:32.435Z,9.82
2022-11-19T01:10:35.741Z,9.55
2022-11-19T01:11:40.066Z,10.27
2022-11-19T01:12:57.615Z,9.25
2022-11-19T01:14:00.859Z,9.57
2022-11-19T01:15:06.367Z,10.43
2022-11-19T01:16:11.147Z,9.48
2022-11-19T01:17:14.938Z,9.75
2022-11-19T01:18:18.661Z,10.15
2022-11-19T01:19:22.610Z,9.88
2022-11-19T01:20:25.526Z,10.35
2022-11-19T01:21:31.537Z,10.23
2022-11-19T01:22:34.181Z,9.88
2022-11-19T01:23:38.070Z,9.65
2022-11-19T01:24:40.723Z,9.82
2022-11-19T01:25:44.444Z,10.45
2022-11-19T01:26:48.147Z,9.90
2022-11-19T01:27:50.817Z,9.95
2022-11-19T01:28:54.828Z,9.93
2022-11-19T01:29:57.659Z,10.05
2022-11-19T01:31:08.086Z,10.20
2022-11-19T01:32:11.765Z,10.05
2022-11-19T01:33:15.495Z,11.15
2022-11-19T01:34:18.178Z,10.95
2022-11-19T01:35:21.875Z,10.32
2022-11-19T01:36:27.017Z,10.27
2022-11-19T01:37:29.713Z,10.93
2022-11-19T01:38:33.878Z,10.63
2022-11-19T01:39:36.539Z,11.75
2022-11-19T01:40:45.797Z,12.27
2022-11-19T01:41:48.454Z,13.50
2022-11-19T01:42:53.996Z,12.85
2022-11-19T01:43:59.889Z,11.50
2022-11-19T01:45:04.841Z,12.43
2022-11-19T01:46:10.285Z,12.60
2022-11-19T01:47:12.928Z,12.35
2022-11-19T01:48:20.136Z,12.80
2022-11-19T01:49:23.856Z,12.10
2022-11-19T01:50:27.297Z,12.68
2022-11-19T01:51:33.069Z,12.68
2022-11-19T01:52:35.750Z,12.40
2022-11-19T01:53:40.248Z,12.13
2022-11-19T01:54:45.647Z,11.77
2022-11-19T01:55:49.731Z,11.32
2022-11-19T01:56:53.969Z,12.75
2022-11-19T01:58:01.123Z,12.13
2022-11-19T01:59:07.550Z,13.50
2022-11-19T02:00:11.619Z,13.82
2022-11-19T02:01:17.244Z,13.88
2022-11-19T02:02:20.565Z,14.35
2022-11-19T02:03:24.395Z,13.77
2022-11-19T02:04:27.743Z,13.52
2022-11-19T02:05:31.527Z,12.40
2022-11-19T02:06:35.818Z,12.73
2022-11-19T02:07:41.097Z,13.57
2022-11-19T02:08:46.227Z,13.20
2022-11-19T02:09:49.798Z,13.57
2022-11-19T02:11:02.031Z,12.73
2022-11-19T02:12:22.629Z,13.07
2022-11-19T02:13:31.898Z,13.80
2022-11-19T02:14:56.025Z,12.10
2022-11-19T02:16:04.220Z,12.90
2022-11-19T02:17:15.017Z,13.10
2022-11-19T02:18:33.689Z,13.65
2022-11-19T02:20:02.246Z,12.85
2022-11-19T02:21:22.578Z,12.43
2022-11-19T02:22:39.030Z,12.32
2022-11-19T02:24:09.777Z,12.60
2022-11-19T02:25:19.176Z,13.38
2022-11-19T02:26:40.860Z,13.25
2022-11-19T02:27:56.623Z,13.35
2022-11-19T02:29:07.858Z,13.48
2022-11-19T02:30:14.237Z,12.75
2022-11-19T02:31:21.799Z,12.23
2022-11-19T02:32:29.557Z,13.50
2022-11-19T02:33:37.867Z,13.18
2022-11-19T02:34:45.051Z,13.25
2022-11-19T02:35:52.526Z,13.25
2022-11-19T02:37:00.350Z,13.98
2022-11-19T02:38:06.845Z,15.38
2022-11-19T02:39:15.836Z,15.32
2022-11-19T02:40:24.413Z,17.52
2022-11-19T02:41:35.229Z,16.75
2022-11-19T02:42:46.088Z,14.93
2022-11-19T02:43:50.833Z,14.73
2022-11-19T02:45:01.958Z,15.23
2022-11-19T02:46:10.889Z,15.88
2022-11-19T02:47:17.861Z,14.63
2022-11-19T02:48:24.586Z,15.30
2022-11-19T02:49:29.549Z,15.63
2022-11-19T02:50:35.338Z,15.93
2022-11-19T02:51:38.320Z,14.93
2022-11-19T02:52:42.164Z,15.20
2022-11-19T02:53:48.790Z,15.45
2022-11-19T02:54:51.476Z,15.75
2022-11-19T02:56:13.457Z,14.95
2022-11-19T02:57:16.689Z,15.32
2022-11-19T02:58:36.048Z,14.50
2022-11-19T02:59:59.637Z,15.38
2022-11-19T03:01:21.650Z,16.00
2022-11-19T03:02:47.488Z,15.57
2022-11-19T03:04:11.355Z,14.00
2022-11-19T03:05:18.105Z,14.75
2022-11-19T03:06:23.837Z,15.00
2022-11-19T03:07:27.625Z,14.00
2022-11-19T03:08:30.385Z,15.77
2022-11-19T03:09:36.223Z,15.70
2022-11-19T03:10:46.466Z,14.80
2022-11-19T03:11:54.147Z,14.68
2022-11-19T03:13:22.050Z,15.75
2022-11-19T03:14:45.518Z,14.40
2022-11-19T03:16:07.526Z,14.45
2022-11-19T03:17:15.086Z,14.40
2022-11-19T03:18:22.853Z,14.38
2022-11-19T03:19:34.307Z,15.15
2022-11-19T03:20:40.990Z,14.98
2022-11-19T03:21:46.594Z,15.77
2022-11-19T03:22:56.436Z,14.52
2022-11-19T03:24:01.975Z,14.63
2022-11-19T03:25:10.281Z,14.80
2022-11-19T03:26:18.688Z,14.95
2022-11-19T03:27:25.497Z,15.70
2022-11-19T03:28:31.019Z,15.07
2022-11-19T03:29:37.460Z,14.73
2022-11-19T03:30:41.458Z,14.65
2022-11-19T03:31:48.897Z,15.20
2022-11-19T03:32:55.536Z,13.98
2022-11-19T03:34:03.594Z,13.63
2022-11-19T03:35:09.507Z,14.43
2022-11-19T03:36:17.548Z,14.57
2022-11-19T03:37:21.936Z,14.35
2022-11-19T03:38:29.360Z,14.05
2022-11-19T03:39:34.647Z,15.18
2022-11-19T03:40:39.026Z,13.55
2022-11-19T03:41:43.227Z,14.32
2022-11-19T03:42:50.693Z,14.40
2022-11-19T03:43:56.415Z,14.18
2022-11-19T03:45:04.893Z,14.63
2022-11-19T03:46:11.617Z,15.00
2022-11-19T03:47:17.781Z,14.60
2022-11-19T03:48:21.805Z,15.02
2022-11-19T03:49:31.856Z,14.10
2022-11-19T03:50:40.575Z,15.18
2022-11-19T03:51:48.369Z,15.95
2022-11-19T03:52:51.196Z,14.35
2022-11-19T03:53:54.977Z,14.85
2022-11-19T03:54:58.029Z,15.05
2022-11-19T03:56:04.423Z,15.38
2022-11-19T03:57:07.841Z,14.30
2022-11-19T03:58:12.496Z,14.23
2022-11-19T03:59:16.147Z,15.13
2022-11-19T04:00:20.343Z,15.20
2022-11-19T04:01:23.248Z,16.35
2022-11-19T04:02:27.136Z,16.23
2022-11-19T04:03:29.977Z,16.17
2022-11-19T04:04:37.677Z,14.85
2022-11-19T04:05:41.390Z,24.20
2022-11-19T04:06:44.174Z,23.00
2022-11-19T04:07:47.820Z,22.08
2022-11-19T04:08:50.487Z,21.83
2022-11-19T04:09:54.147Z,19.85
2022-11-19T04:10:57.151Z,41.85
2022-11-19T04:12:00.973Z,50.00
2022-11-19T04:13:03.711Z,94.55
2022-11-19T04:14:07.556Z,112.13
2022-11-19T04:15:12.164Z,37.22
2022-11-19T04:16:15.896Z,32.63
2022-11-19T04:17:19.447Z,26.75
2022-11-19T04:18:23.096Z,18.33
2022-11-19T04:19:25.858Z,17.20
2022-11-19T04:20:31.029Z,18.70
2022-11-19T04:21:33.697Z,26.92
2022-11-19T04:22:37.466Z,21.25
2022-11-19T04:23:40.208Z,17.48
2022-11-19T04:24:43.938Z,17.98
2022-11-19T04:25:47.121Z,21.90
2022-11-19T04:26:50.845Z,24.35
2022-11-19T04:27:54.506Z,21.58
2022-11-19T04:28:57.186Z,22.95
2022-11-19T04:30:02.273Z,21.80
2022-11-19T04:31:05.286Z,17.00
2022-11-19T04:32:09.009Z,20.40
2022-11-19T04:33:11.674Z,15.90
2022-11-19T04:34:15.446Z,15.57
2022-11-19T04:35:21.989Z,13.35
2022-11-19T04:36:27.236Z,15.05
2022-11-19T04:37:29.973Z,17.20
2022-11-19T04:38:34.905Z,16.98
2022-11-19T04:39:37.577Z,19.98
2022-11-19T04:40:41.537Z,17.27
2022-11-19T04:41:44.158Z,19.52
2022-11-19T04:42:47.886Z,14.77
2022-11-19T04:43:50.579Z,17.50
2022-11-19T04:44:54.270Z,17.25
2022-11-19T04:45:57.055Z,19.25
2022-11-19T04:47:01.176Z,17.50
2022-11-19T04:48:03.979Z,19.00
2022-11-19T04:49:07.808Z,24.40
2022-11-19T04:50:10.663Z,26.65
2022-11-19T04:51:14.366Z,27.13
2022-11-19T04:52:18.478Z,16.08
2022-11-19T04:53:22.534Z,14.95
2022-11-19T04:54:25.148Z,15.68
2022-11-19T04:55:28.886Z,15.57
2022-11-19T04:56:31.534Z,13.82
2022-11-19T04:57:35.347Z,16.35
2022-11-19T04:58:38.007Z,15.27
2022-11-19T04:59:41.674Z,14.35
2022-11-19T05:00:44.417Z,15.20
2022-11-19T05:01:49.508Z,14.82
2022-11-19T05:02:52.277Z,15.98
2022-11-19T05:03:56.023Z,14.48
2022-11-19T05:04:58.777Z,15.50
2022-11-19T05:06:02.549Z,15.43
2022-11-19T05:07:05.356Z,16.85
2022-11-19T05:08:10.467Z,15.98
2022-11-19T05:09:13.268Z,14.85
2022-11-19T05:10:17.021Z,13.88
2022-11-19T05:11:19.708Z,14.25
2022-11-19T05:12:23.494Z,14.93
2022-11-19T05:13:26.134Z,12.82
2022-11-19T05:14:30.690Z,12.82
2022-11-19T05:15:33.516Z,12.55
2022-11-19T05:16:37.308Z,12.48
2022-11-19T05:17:40.007Z,12.15
2022-11-19T05:18:43.823Z,13.45
2022-11-19T05:19:46.498Z,13.60
2022-11-19T05:20:50.190Z,13.90
2022-11-19T05:21:52.839Z,14.20
2022-11-19T05:22:56.605Z,14.18
2022-11-19T05:24:00.712Z,14.00
2022-11-19T05:25:04.539Z,15.63
2022-11-19T05:26:07.945Z,14.80
2022-11-19T05:27:11.672Z,15.63
2022-11-19T05:28:15.103Z,18.05
2022-11-19T05:29:20.442Z,15.77
2022-11-19T05:30:23.547Z,13.65
2022-11-19T05:31:28.700Z,13.15
2022-11-19T05:32:31.879Z,14.20
2022-11-19T05:33:35.628Z,12.88
2022-11-19T05:34:38.731Z,13.57
2022-11-19T05:35:42.445Z,13.68
2022-11-19T05:36:45.197Z,12.93
2022-11-19T05:37:50.236Z,13.93
2022-11-19T05:38:52.866Z,14.02
2022-11-19T05:39:58.028Z,14.27
2022-11-19T05:41:00.688Z,13.50
2022-11-19T05:42:04.384Z,14.30
2022-11-19T05:43:07.476Z,13.98
2022-11-19T05:44:11.337Z,13.20
2022-11-19T05:45:14.099Z,13.45
2022-11-19T05:46:17.848Z,12.90
2022-11-19T05:47:20.528Z,14.18
2022-11-19T05:48:24.258Z,12.25
2022-11-19T05:49:26.982Z,13.60
2022-11-19T05:50:30.788Z,12.57
2022-11-19T05:51:33.516Z,13.57
2022-11-19T05:52:38.076Z,13.77
2022-11-19T05:53:40.879Z,13.18
2022-11-19T05:54:44.627Z,13.23
2022-11-19T05:55:49.845Z,13.70
2022-11-19T05:56:52.496Z,14.00
2022-11-19T05:57:56.297Z,13.80
2022-11-19T05:58:59.099Z,13.73
2022-11-19T06:00:02.796Z,14.35
2022-11-19T06:01:15.276Z,12.93
2022-11-19T06:02:19.156Z,14.32
2022-11-19T06:03:21.908Z,12.48
2022-11-19T06:04:25.780Z,13.15
2022-11-19T06:05:28.807Z,15.73
2022-11-19T06:06:32.479Z,13.77
2022-11-19T06:07:35.216Z,13.05
2022-11-19T06:08:39.011Z,15.15
2022-11-19T06:09:41.698Z,15.15
2022-11-19T06:10:45.497Z,13.48
2022-11-19T06:11:50.569Z,15.40
2022-11-19T06:12:54.461Z,16.30
2022-11-19T06:13:57.367Z,15.52
2022-11-19T06:15:02.217Z,15.68
2022-11-19T06:16:06.572Z,16.73
2022-11-19T06:17:09.277Z,17.35
2022-11-19T06:18:13.076Z,18.13
2022-11-19T06:19:15.775Z,17.33
2022-11-19T06:20:19.661Z,15.93
2022-11-19T06:21:22.367Z,16.95
2022-11-19T06:22:26.136Z,18.63
2022-11-19T06:23:28.947Z,18.55
2022-11-19T06:24:32.805Z,18.92
2022-11-19T06:25:35.518Z,18.50
2022-11-19T06:26:39.247Z,16.48
2022-11-19T06:27:43.297Z,13.98
2022-11-19T06:28:47.044Z,13.40
2022-11-19T06:29:54.980Z,13.75
2022-11-19T06:30:59.978Z,13.32
2022-11-19T06:32:02.674Z,13.32
2022-11-19T06:33:06.376Z,13.63
2022-11-19T06:34:09.345Z,13.68
2022-11-19T06:35:14.497Z,12.50
2022-11-19T06:36:17.359Z,15.45
2022-11-19T06:37:21.238Z,13.15
2022-11-19T06:38:24.157Z,13.93
2022-11-19T06:39:28.146Z,14.32
2022-11-19T06:40:30.803Z,15.15
2022-11-19T06:41:34.510Z,15.52
2022-11-19T06:42:37.153Z,14.20
2022-11-19T06:43:43.250Z,13.77
2022-11-19T06:44:45.882Z,12.80
2022-11-19T06:45:49.537Z,17.40
2022-11-19T06:46:52.186Z,17.08
2022-11-19T06:47:55.877Z,15.88
2022-11-19T06:48:58.758Z,17.50
2022-11-19T06:50:02.480Z,20.25
2022-11-19T06:51:06.082Z,20.17
2022-11-19T06:52:09.828Z,19.05
2022-11-19T06:53:12.677Z,20.40
2022-11-19T06:54:16.504Z,17.15
2022-11-19T06:55:19.356Z,16.60
2022-11-19T06:56:23.028Z,15.98
2022-11-19T06:57:25.960Z,16.00
2022-11-19T06:58:30.160Z,14.90
2022-11-19T06:59:35.208Z,15.38
2022-11-19T07:00:38.956Z,14.23
2022-11-19T07:01:41.752Z,13.50
2022-11-19T07:02:45.547Z,13.80
2022-11-19T07:03:48.169Z,14.20
2022-11-19T07:04:51.982Z,13.32
2022-11-19T07:05:57.990Z,15.23
2022-11-19T07:07:01.773Z,15.02
2022-11-19T07:08:04.638Z,16.13
2022-11-19T07:09:08.478Z,12.88
2022-11-19T07:10:11.206Z,12.98
2022-11-19T07:11:27.121Z,13.70
2022-11-19T07:12:29.840Z,11.77
2022-11-19T07:13:47.446Z,11.75
2022-11-19T07:14:52.528Z,13.18
2022-11-19T07:15:55.214Z,13.02
2022-11-19T07:16:59.057Z,13.88
2022-11-19T07:18:02.018Z,14.63
2022-11-19T07:19:07.097Z,15.50
2022-11-19T07:20:11.483Z,15.60
2022-11-19T07:21:15.150Z,15.20
2022-11-19T07:22:17.855Z,15.50
2022-11-19T07:23:21.549Z,20.00
2022-11-19T07:24:25.393Z,17.63
2022-11-19T07:25:28.365Z,21.13
2022-11-19T07:26:32.807Z,18.30
2022-11-19T07:27:35.537Z,17.40
2022-11-19T07:28:39.218Z,16.00
2022-11-19T07:29:43.037Z,15.07
2022-11-19T07:30:47.109Z,16.00
2022-11-19T07:31:51.013Z,15.93
2022-11-19T07:32:54.396Z,15.55
2022-11-19T07:33:58.209Z,16.90
2022-11-19T07:35:01.857Z,16.02
2022-11-19T07:36:05.068Z,15.40
2022-11-19T07:37:08.820Z,15.10
2022-11-19T07:38:11.501Z,16.58
2022-11-19T07:39:15.206Z,30.05
2022-11-19T07:40:19.068Z,26.50
2022-11-19T07:41:40.406Z,23.33
2022-11-19T07:42:53.319Z,15.15
2022-11-19T07:43:57.097Z,14.75
2022-11-19T07:44:59.738Z,13.73
2022-11-19T07:46:08.976Z,17.05
2022-11-19T07:47:11.647Z,14.63
2022-11-19T07:48:15.440Z,16.25
2022-11-19T07:49:19.430Z,16.92
2022-11-19T07:50:23.429Z,15.35
2022-11-19T07:51:26.621Z,14.77
2022-11-19T07:52:30.896Z,18.10
2022-11-19T07:53:33.527Z,16.00
2022-11-19T07:54:37.389Z,13.88
2022-11-19T07:55:40.187Z,15.15
2022-11-19T07:56:44.309Z,14.35
2022-11-19T07:57:46.957Z,13.35
2022-11-19T07:58:50.665Z,15.50
2022-11-19T07:59:54.420Z,18.55
2022-11-19T08:00:57.293Z,21.98
2022-11-19T08:02:02.627Z,17.20
2022-11-19T08:03:05.943Z,14.25
2022-11-19T08:04:09.897Z,15.48
2022-11-19T08:05:12.587Z,14.10
2022-11-19T08:06:16.873Z,13.55
2022-11-19T08:07:20.749Z,12.98
2022-11-19T08:08:23.469Z,13.73
2022-11-19T08:09:27.347Z,13.88
2022-11-19T08:10:31.866Z,13.82
2022-11-19T08:11:35.842Z,13.70
2022-11-19T08:12:38.546Z,12.70
2022-11-19T08:13:42.713Z,14.32
2022-11-19T08:14:45.377Z,13.82
2022-11-19T08:15:49.091Z,13.27
2022-11-19T08:17:09.925Z,13.85
2022-11-19T08:18:14.109Z,12.80
2022-11-19T08:19:19.000Z,13.38
2022-11-19T08:20:22.070Z,15.02
2022-11-19T08:21:25.783Z,15.18
2022-11-19T08:22:30.048Z,15.00
2022-11-19T08:23:32.768Z,15.23
2022-11-19T08:24:36.587Z,16.33
2022-11-19T08:25:39.597Z,19.13
2022-11-19T08:26:43.569Z,21.48
2022-11-19T08:27:47.288Z,21.27
2022-11-19T08:28:50.026Z,20.02
2022-11-19T08:29:53.687Z,19.55
2022-11-19T08:30:57.749Z,19.13
2022-11-19T08:32:01.656Z,20.13
2022-11-19T08:33:04.480Z,19.75
2022-11-19T08:34:09.753Z,19.15
2022-11-19T08:35:12.392Z,21.17
2022-11-19T08:36:16.192Z,19.40
2022-11-19T08:37:19.958Z,18.73
2022-11-19T08:38:22.619Z,20.50
2022-11-19T08:39:26.336Z,19.75
2022-11-19T08:40:29.055Z,19.33
2022-11-19T08:41:49.916Z,20.75
2022-11-19T08:43:02.537Z,21.50
2022-11-19T08:44:05.752Z,20.10
2022-11-19T08:45:10.162Z,20.77
2022-11-19T08:46:12.928Z,20.00
2022-11-19T08:47:16.918Z,19.52
2022-11-19T08:48:20.016Z,17.20
2022-11-19T08:49:25.268Z,16.42
2022-11-19T08:50:28.774Z,14.88
2022-11-19T08:51:32.688Z,15.57
2022-11-19T08:52:35.584Z,15.32
2022-11-19T08:53:39.237Z,15.90
2022-11-19T08:54:43.720Z,17.23
2022-11-19T08:55:51.652Z,18.30
2022-11-19T08:56:55.782Z,16.80
2022-11-19T08:58:02.277Z,16.65
2022-11-19T08:59:06.028Z,16.73
2022-11-19T09:00:09.918Z,13.70
2022-11-19T09:01:15.154Z,11.82
2022-11-19T09:02:19.337Z,11.32
2022-11-19T09:03:22.602Z,11.95
2022-11-19T09:04:27.948Z,11.48
2022-11-19T09:05:32.058Z,11.35
2022-11-19T09:06:35.287Z,12.20
2022-11-19T09:07:39.159Z,12.82
2022-11-19T09:08:42.228Z,11.80
2022-11-19T09:09:46.056Z,11.45
2022-11-19T09:10:48.732Z,12.52
2022-11-19T09:11:52.426Z,11.73
2022-11-19T09:12:55.182Z,12.65
2022-11-19T09:13:59.097Z,12.07
2022-11-19T09:15:02.948Z,12.02
2022-11-19T09:16:07.315Z,11.90
2022-11-19T09:17:11.088Z,11.80
2022-11-19T09:18:15.200Z,10.77
2022-11-19T09:19:18.967Z,10.85
2022-11-19T09:20:24.446Z,11.95
2022-11-19T09:21:27.141Z,12.55
2022-11-19T09:22:31.636Z,11.38
2022-11-19T09:23:35.294Z,10.85
2022-11-19T09:24:38.027Z,10.57
2022-11-19T09:25:41.716Z,10.77
2022-11-19T09:26:48.864Z,11.32
2022-11-19T09:27:55.498Z,11.07
2022-11-19T09:28:58.297Z,12.45
2022-11-19T09:30:01.974Z,11.40
2022-11-19T09:31:08.416Z,11.75
2022-11-19T09:32:11.202Z,11.57
2022-11-19T09:33:14.956Z,12.60
2022-11-19T09:34:19.365Z,11.25
2022-11-19T09:35:23.691Z,16.50
2022-11-19T09:36:27.594Z,12.43
2022-11-19T09:37:34.182Z,12.73
2022-11-19T09:38:38.034Z,12.43
2022-11-19T09:39:40.721Z,11.65
2022-11-19T09:40:46.109Z,11.65
2022-11-19T09:41:54.348Z,12.45
2022-11-19T09:43:08.455Z,13.15
2022-11-19T09:44:33.163Z,11.20
2022-11-19T09:45:45.379Z,10.90
2022-11-19T09:46:56.719Z,11.57
2022-11-19T09:48:10.964Z,11.15
2022-11-19T09:49:20.296Z,11.15
2022-11-19T09:50:26.509Z,11.65
2022-11-19T09:51:32.816Z,12.05
2022-11-19T09:52:41.248Z,12.18
2022-11-19T09:53:52.188Z,11.38
2022-11-19T09:54:55.838Z,11.98
2022-11-19T09:56:00.666Z,12.13
2022-11-19T09:57:07.429Z,11.85
2022-11-19T09:58:14.876Z,11.80
2022-11-19T09:59:25.654Z,10.98
2022-11-19T10:00:30.351Z,11.48
2022-11-19T10:01:34.458Z,11.57
2022-11-19T10:02:37.361Z,10.88
2022-11-19T10:03:42.691Z,10.60
2022-11-19T10:04:48.748Z,9.75
2022-11-19T10:06:17.174Z,10.35
2022-11-19T10:07:28.704Z,9.60
2022-11-19T10:08:40.937Z,9.02
2022-11-19T10:09:53.467Z,9.50
2022-11-19T10:11:08.223Z,9.52
2022-11-19T10:12:20.897Z,10.43
2022-11-19T10:13:41.100Z,9.95
2022-11-19T10:14:50.026Z,11.10
2022-11-19T10:16:08.834Z,11.75
2022-11-19T10:17:20.638Z,10.00
2022-11-19T10:18:31.452Z,9.80
2022-11-19T10:19:42.021Z,11.25
2022-11-19T10:21:00.089Z,9.70
2022-11-19T10:22:09.802Z,9.25
2022-11-19T10:23:15.938Z,8.75
2022-11-19T10:24:27.581Z,10.10
2022-11-19T10:25:34.090Z,9.38
2022-11-19T10:26:39.589Z,13.50
2022-11-19T10:27:47.734Z,16.83
2022-11-19T10:28:56.332Z,15.43
2022-11-19T10:30:00.757Z,10.10
2022-11-19T10:31:08.657Z,10.63
2022-11-19T10:32:21.546Z,9.35
2022-11-19T10:33:29.271Z,10.60
2022-11-19T10:34:34.904Z,10.43
2022-11-19T10:35:39.886Z,10.90
2022-11-19T10:36:47.044Z,10.63
2022-11-19T10:37:53.920Z,11.68
2022-11-19T10:39:04.097Z,11.18
2022-11-19T10:40:13.269Z,11.48
2022-11-19T10:41:18.679Z,11.77
2022-11-19T10:42:24.830Z,10.55
2022-11-19T10:43:31.465Z,10.02
2022-11-19T10:44:38.015Z,10.95
2022-11-19T10:45:41.789Z,10.60
2022-11-19T10:46:44.684Z,10.57
2022-11-19T10:47:52.379Z,10.60
2022-11-19T10:48:56.938Z,10.50
2022-11-19T10:50:00.656Z,10.43
2022-11-19T10:51:10.224Z,10.45
2022-11-19T10:52:25.413Z,9.27
2022-11-19T10:53:32.400Z,10.10
2022-11-19T10:54:35.107Z,10.95
2022-11-19T10:55:40.946Z,11.30
2022-11-19T10:56:44.875Z,29.42
2022-11-19T10:57:48.998Z,12.70
2022-11-19T10:58:55.456Z,17.02
2022-11-19T10:59:58.447Z,14.10
2022-11-19T11:01:04.098Z,13.32
2022-11-19T11:02:23.853Z,13.07
2022-11-19T11:03:35.170Z,12.52
2022-11-19T11:05:02.947Z,11.35
2022-11-19T11:06:10.261Z,11.02
2022-11-19T11:07:12.949Z,10.70
2022-11-19T11:08:18.107Z,11.60
2022-11-19T11:09:32.238Z,10.75
2022-11-19T11:10:39.176Z,10.60
2022-11-19T11:11:59.796Z,12.05
2022-11-19T11:13:43.255Z,10.82
2022-11-19T11:14:55.134Z,10.50
2022-11-19T11:15:58.956Z,11.68
2022-11-19T11:17:02.679Z,11.10
2022-11-19T11:18:07.868Z,11.57
2022-11-19T11:19:15.059Z,10.93
2022-11-19T11:20:23.246Z,11.60
2022-11-19T11:21:35.935Z,11.48
2022-11-19T11:22:39.077Z,11.43
2022-11-19T11:23:52.877Z,12.00
2022-11-19T11:24:55.589Z,11.25
2022-11-19T11:26:05.288Z,11.48
2022-11-19T11:27:31.109Z,10.57
2022-11-19T11:28:35.374Z,11.15
2022-11-19T11:29:39.045Z,11.13
2022-11-19T11:30:52.638Z,10.70
2022-11-19T11:31:56.455Z,11.18
2022-11-19T11:32:59.275Z,11.32
2022-11-19T11:34:03.575Z,10.98
2022-11-19T11:35:12.153Z,11.02
2022-11-19T11:36:21.446Z,11.65
2022-11-19T11:37:24.766Z,11.52
2022-11-19T11:38:29.186Z,12.10
2022-11-19T11:39:36.807Z,12.60
2022-11-19T11:40:39.496Z,12.15
2022-11-19T11:43:07.283Z,13.52
2022-11-19T11:44:20.116Z,12.75
2022-11-19T11:45:27.988Z,13.23
2022-11-19T11:46:42.046Z,12.38
2022-11-19T11:47:45.818Z,12.02
2022-11-19T11:48:49.316Z,12.40
2022-11-19T11:49:59.448Z,11.80
2022-11-19T11:51:02.065Z,12.43
2022-11-19T11:52:14.954Z,12.50
2022-11-19T11:53:30.325Z,13.13
2022-11-19T11:54:35.684Z,11.95
2022-11-19T11:55:38.894Z,12.77
2022-11-19T11:56:42.666Z,12.13
2022-11-19T11:57:53.278Z,13.23
2022-11-19T11:59:15.492Z,17.58
2022-11-19T12:00:35.149Z,15.85
2022-11-19T12:01:38.657Z,20.30
2022-11-19T12:02:42.440Z,13.40
2022-11-19T12:03:55.678Z,12.80
2022-11-19T12:05:02.434Z,13.85
2022-11-19T12:06:09.768Z,14.27
2022-11-19T12:07:21.629Z,12.90
2022-11-19T12:08:45.394Z,21.20
2022-11-19T12:09:55.497Z,16.52
2022-11-19T12:11:03.778Z,29.05
2022-11-19T12:12:11.167Z,14.13
2022-11-19T12:13:39.915Z,14.90
2022-11-19T12:14:50.427Z,17.42
2022-11-19T12:15:57.635Z,17.55
2022-11-19T12:17:23.809Z,14.15
2022-11-19T12:18:32.684Z,14.05
2022-11-19T12:19:56.146Z,14.52
2022-11-19T12:21:03.515Z,13.73
2022-11-19T12:22:13.943Z,14.32
2022-11-19T12:23:30.245Z,14.95
2022-11-19T12:24:41.755Z,14.35
2022-11-19T12:25:57.623Z,14.52
2022-11-19T12:27:11.709Z,15.30
2022-11-19T12:28:38.177Z,14.75
2022-11-19T12:29:48.746Z,14.18
2022-11-19T12:31:00.925Z,14.00
2022-11-19T12:32:17.884Z,14.73
2022-11-19T12:33:29.133Z,14.27
2022-11-19T12:34:56.693Z,14.93
2022-11-19T12:36:10.175Z,15.77
2022-11-19T12:37:23.695Z,15.07
2022-11-19T12:38:45.266Z,14.55
2022-11-19T12:39:54.136Z,15.15
2022-11-19T12:41:09.384Z,14.88
2022-11-19T12:42:35.419Z,15.52
2022-11-19T12:44:00.324Z,15.55
2022-11-19T12:45:07.463Z,13.48
2022-11-19T12:46:19.850Z,15.88
2022-11-19T12:47:31.059Z,16.92
2022-11-19T12:48:52.044Z,17.42
2022-11-19T12:50:02.575Z,16.67
2022-11-19T12:51:09.768Z,15.32
2022-11-19T12:52:36.955Z,17.05
2022-11-19T12:53:57.351Z,17.25
2022-11-19T12:55:06.312Z,16.88
2022-11-19T12:56:21.885Z,16.65
2022-11-19T12:57:42.348Z,17.52
2022-11-19T12:58:49.556Z,15.80
2022-11-19T13:00:09.326Z,16.10
2022-11-19T13:01:16.075Z,15.60
2022-11-19T13:02:23.767Z,18.27
2022-11-19T13:03:41.865Z,17.42
2022-11-19T13:04:47.255Z,18.23
2022-11-19T13:05:53.568Z,18.52
2022-11-19T13:07:00.027Z,19.17
2022-11-19T13:08:07.974Z,17.08
2022-11-19T13:09:17.909Z,16.67
2022-11-19T13:10:25.591Z,16.88
2022-11-19T13:11:36.711Z,16.88
2022-11-19T13:12:43.206Z,20.27
2022-11-19T13:13:48.825Z,17.27
2022-11-19T13:14:55.204Z,17.63
2022-11-19T13:16:01.047Z,16.42
2022-11-19T13:17:05.358Z,18.25
2022-11-19T13:18:12.547Z,19.92
2022-11-19T13:19:23.694Z,32.25
2022-11-19T13:20:30.500Z,30.42
2022-11-19T13:21:41.223Z,19.60
2022-11-19T13:22:47.661Z,19.80
2022-11-19T13:23:52.463Z,17.75
2022-11-19T13:24:59.525Z,17.73
2022-11-19T13:26:04.536Z,20.10
2022-11-19T13:27:16.590Z,17.48
2022-11-19T13:28:27.359Z,17.27
2022-11-19T13:29:38.024Z,18.42
2022-11-19T13:30:44.666Z,22.90
2022-11-19T13:31:52.846Z,19.00
2022-11-19T13:33:03.841Z,16.73
2022-11-19T13:34:15.678Z,14.27
2022-11-19T13:35:23.704Z,14.57
2022-11-19T13:36:30.865Z,13.70
2022-11-19T13:37:44.424Z,17.10
2022-11-19T13:38:53.148Z,15.55
2022-11-19T13:40:01.229Z,14.57
2022-11-19T13:41:09.528Z,14.95
2022-11-19T13:42:33.283Z,16.17
2022-11-19T13:43:56.675Z,14.48
2022-11-19T13:44:59.446Z,14.80
2022-11-19T13:46:10.587Z,15.40
2022-11-19T13:47:17.486Z,15.02
2022-11-19T13:48:25.360Z,21.33
2022-11-19T13:49:31.794Z,15.70
2022-11-19T13:50:39.135Z,20.35
2022-11-19T13:51:46.471Z,16.23
2022-11-19T13:52:54.648Z,16.20
2022-11-19T13:54:02.948Z,15.10
2022-11-19T13:55:32.726Z,14.23
2022-11-19T13:56:42.892Z,13.18
2022-11-19T13:57:48.408Z,14.55
2022-11-19T13:58:53.906Z,14.20
2022-11-19T14:00:03.335Z,13.98
2022-11-19T14:01:43.764Z,18.40
2022-11-19T14:03:07.319Z,17.10
2022-11-19T14:04:22.807Z,14.32
2022-11-19T14:05:38.810Z,15.02
2022-11-19T14:06:56.756Z,13.95
2022-11-19T14:08:25.075Z,14.13
2022-11-19T14:09:37.097Z,12.88
2022-11-19T14:10:45.340Z,13.55
2022-11-19T14:12:02.847Z,13.30
2022-11-19T14:13:38.717Z,13.15
2022-11-19T14:15:16.665Z,14.27
2022-11-19T14:16:44.089Z,13.27
2022-11-19T14:18:10.646Z,15.90
2022-11-19T14:19:33.694Z,12.65
2022-11-19T14:21:07.155Z,11.98
2022-11-19T14:22:51.759Z,11.43
2022-11-19T14:24:12.828Z,12.20
2022-11-19T14:25:59.174Z,12.63
2022-11-19T14:27:17.435Z,12.30